Time;durP1;ratioP1;P1;durP2;ratioP2;P2;SDS_P1;SDS_P2;PMS_P1;PMS_P2;Temp;Humidity;BMP_temperature;BMP_pressure;BME280_temperature;BME280_humidity;BME280_pressure;Samples;Min_cycle;Max_cycle;Signal;HPM_P1;HPM_P2
2022/11/20 00:01:18;;;;;;;95.00;28.43;;;;;;;-0.83;67.73;100275.59;1753231;81;21569;-79
2022/11/20 00:03:45;;;;;;;64.90;24.80;;;;;;;-0.80;67.75;100273.06;1753305;81;20980;-79
2022/11/20 00:06:18;;;;;;;64.40;22.90;;;;;;;-0.83;67.71;100270.04;1757741;81;20996;-79
2022/11/20 00:08:46;;;;;;;130.23;44.97;;;;;;;-0.89;67.75;100276.41;1753479;80;21139;-79
2022/11/20 00:11:18;;;;;;;243.87;71.13;;;;;;;-0.91;68.06;100260.97;1753315;81;21011;-79
2022/11/20 00:13:48;;;;;;;150.50;43.43;;;;;;;-0.90;68.28;100265.69;1749110;81;21053;-79
2022/11/20 00:16:18;;;;;;;92.62;30.43;;;;;;;-0.94;68.11;100258.38;1745632;81;21042;-79
2022/11/20 00:18:46;;;;;;;82.55;28.02;;;;;;;-1.01;68.33;100259.17;1761037;81;21070;-79
2022/11/20 00:21:17;;;;;;;65.23;25.53;;;;;;;-1.07;68.19;100259.56;1753199;81;21154;-79
2022/11/20 00:23:46;;;;;;;64.30;23.03;;;;;;;-1.13;68.37;100259.09;1753389;81;21066;-78
2022/11/20 00:26:17;;;;;;;50.47;22.63;;;;;;;-1.19;68.53;100252.19;1754668;81;21003;-79
2022/11/20 00:28:46;;;;;;;57.47;23.63;;;;;;;-1.21;68.72;100255.59;1754482;81;21038;-79
2022/11/20 00:31:16;;;;;;;76.50;29.10;;;;;;;-1.17;69.26;100255.61;1754375;81;21078;-77
2022/11/20 00:33:44;;;;;;;71.53;27.48;;;;;;;-1.14;69.19;100254.37;1754654;81;21007;-77
2022/11/20 00:36:15;;;;;;;49.90;21.77;;;;;;;-1.14;69.18;100259.92;1754713;81;21011;-77
2022/11/20 00:38:42;;;;;;;59.30;23.60;;;;;;;-1.17;69.09;100261.18;1754569;81;21070;-77
2022/11/20 00:41:14;;;;;;;60.17;24.10;;;;;;;-1.21;69.28;100256.45;1754798;81;21031;-77
2022/11/20 00:43:42;;;;;;;64.47;25.03;;;;;;;-1.22;69.10;100266.31;1754572;81;21011;-77
2022/11/20 00:46:14;;;;;;;87.17;29.60;;;;;;;-1.27;69.49;100264.11;1754730;81;22034;-77
2022/11/20 00:48:42;;;;;;;75.03;25.97;;;;;;;-1.24;69.42;100257.70;1753733;81;21030;-77
2022/11/20 00:51:11;;;;;;;40.37;19.27;;;;;;;-1.29;69.22;100256.80;1754731;81;21068;-77
2022/11/20 00:53:38;;;;;;;55.30;24.70;;;;;;;-1.30;69.42;100261.92;1754456;81;21062;-77
2022/11/20 00:56:09;;;;;;;31.80;17.27;;;;;;;-1.31;69.50;100265.34;1754872;81;22058;-77
2022/11/20 00:58:42;;;;;;;33.50;17.40;;;;;;;-1.25;69.68;100268.83;1754748;81;22153;-77
2022/11/20 01:01:23;;;;;;;33.43;16.90;;;;;;;-1.20;69.98;100264.59;1754437;81;21055;-80
2022/11/20 01:03:52;;;;;;;34.97;17.97;;;;;;;-1.13;69.96;100259.95;1754935;81;20995;-80
2022/11/20 01:06:24;;;;;;;28.73;15.83;;;;;;;-1.06;69.94;100258.27;1762909;81;21486;-79
2022/11/20 01:08:53;;;;;;;30.80;15.50;;;;;;;-1.04;69.69;100251.87;1785769;79;21046;-80
2022/11/20 01:11:25;;;;;;;27.13;16.37;;;;;;;-1.12;69.35;100252.66;1751593;81;22071;-80
2022/11/20 01:13:54;;;;;;;32.03;17.20;;;;;;;-1.19;69.21;100256.44;1773458;79;21071;-80
2022/11/20 01:16:25;;;;;;;31.33;17.77;;;;;;;-1.30;69.14;100256.77;1749353;81;20980;-77
2022/11/20 01:18:56;;;;;;;28.73;16.33;;;;;;;-1.40;69.10;100251.99;1755780;81;20991;-79
2022/11/20 01:21:28;;;;;;;33.18;17.42;;;;;;;-1.49;69.32;100255.77;1760864;81;21358;-80
2022/11/20 01:23:55;;;;;;;31.03;17.70;;;;;;;-1.57;69.57;100251.41;1753895;81;21106;-79
2022/11/20 01:26:27;;;;;;;32.20;18.07;;;;;;;-1.58;70.05;100254.83;1750222;81;21023;-79
2022/11/20 01:28:55;;;;;;;33.50;18.60;;;;;;;-1.51;70.55;100257.03;1750395;81;21071;-79
2022/11/20 01:31:28;;;;;;;30.63;17.97;;;;;;;-1.51;70.32;100258.73;1750198;81;21008;-79
2022/11/20 01:33:58;;;;;;;30.77;18.63;;;;;;;-1.53;70.64;100257.86;1750695;81;21557;-79
2022/11/20 01:36:29;;;;;;;29.95;17.07;;;;;;;-1.47;71.01;100252.77;1750326;81;21113;-79
2022/11/20 01:39:00;;;;;;;37.23;21.42;;;;;;;-1.47;70.84;100245.95;1750583;81;21015;-79
2022/11/20 01:44:18;;;;;;;40.27;21.10;;;;;;;-1.53;70.82;100251.43;1750569;81;21023;-79
2022/11/20 01:47:07;;;;;;;51.05;23.73;;;;;;;-1.62;70.68;100247.06;1750364;81;21426;-79
2022/11/20 01:49:51;;;;;;;45.23;22.30;;;;;;;-1.65;70.88;100245.75;1750412;81;21791;-79
2022/11/20 01:52:45;;;;;;;37.93;17.10;;;;;;;-1.67;70.88;100247.44;1750212;81;21003;-79
2022/11/20 01:55:21;;;;;;;35.43;19.07;;;;;;;-1.78;70.84;100240.05;1749102;81;21504;-79
2022/11/20 01:57:49;;;;;;;36.63;19.47;;;;;;;-1.86;71.14;100242.52;1750530;81;21023;-79
2022/11/20 02:00:19;;;;;;;41.57;22.67;;;;;;;-1.88;71.36;100239.10;1750524;81;21548;-79
2022/11/20 02:02:52;;;;;;;48.80;22.55;;;;;;;-1.90;71.51;100244.20;1750359;81;21136;-79
2022/11/20 02:05:57;;;;;;;42.27;22.40;;;;;;;-1.92;71.45;100247.17;1752531;81;20985;-79
2022/11/20 02:08:24;;;;;;;39.87;20.83;;;;;;;-1.90;71.69;100246.78;1741721;81;21006;-79
2022/11/20 02:10:51;;;;;;;36.60;20.33;;;;;;;-1.94;71.32;100250.17;1734876;81;21009;-79
2022/11/20 02:16:05;;;;;;;44.43;21.97;;;;;;;-2.10;71.52;100252.98;1743133;81;21121;-79
2022/11/20 02:18:33;;;;;;;42.63;22.13;;;;;;;-2.10;71.80;100254.27;1754114;81;20995;-79
2022/11/20 02:21:20;;;;;;;41.77;21.47;;;;;;;-2.12;71.68;100253.80;1742742;81;21019;-79
2022/11/20 02:24:01;;;;;;;35.67;20.03;;;;;;;-2.17;71.48;100256.73;1749886;80;20988;-80
2022/11/20 02:26:33;;;;;;;37.23;18.67;;;;;;;-2.27;71.63;100259.19;1769032;79;21288;-79
2022/11/20 02:29:02;;;;;;;38.07;19.93;;;;;;;-2.33;71.85;100263.36;1764043;81;21134;-79
2022/11/20 02:31:29;;;;;;;34.27;19.90;;;;;;;-2.44;71.61;100254.66;1764599;80;21044;-79
2022/11/20 02:33:59;;;;;;;36.33;19.47;;;;;;;-2.48;72.21;100259.76;1761458;81;21097;-79
2022/11/20 02:36:28;;;;;;;30.92;17.67;;;;;;;-2.43;72.28;100262.83;1769064;81;21004;-79
2022/11/20 02:38:55;;;;;;;37.30;20.43;;;;;;;-2.52;72.01;100265.70;1769309;80;21486;-79
2022/11/20 02:41:24;;;;;;;35.50;19.60;;;;;;;-2.63;71.89;100264.70;1768402;81;21099;-79
2022/11/20 02:43:51;;;;;;;35.40;19.47;;;;;;;-2.66;72.25;100267.61;1757084;81;21042;-79
2022/11/20 02:46:18;;;;;;;33.03;17.53;;;;;;;-2.63;72.72;100263.41;1768929;81;21517;-76
2022/11/20 02:48:45;;;;;;;34.90;18.37;;;;;;;-2.60;72.39;100266.02;1748195;81;20982;-76
2022/11/20 02:51:12;;;;;;;37.50;19.63;;;;;;;-2.67;72.62;100268.47;1748535;81;21025;-77
2022/11/20 02:53:39;;;;;;;33.90;19.17;;;;;;;-2.66;72.77;100260.81;1768254;81;21134;-77
2022/11/20 02:56:07;;;;;;;38.40;20.50;;;;;;;-2.74;72.41;100259.41;1760836;81;20937;-77
2022/11/20 02:58:34;;;;;;;41.63;22.50;;;;;;;-2.76;72.40;100254.66;1766048;81;21026;-76
2022/11/20 03:01:01;;;;;;;35.20;19.47;;;;;;;-2.74;72.87;100257.27;1769480;81;21009;-76
2022/11/20 03:03:28;;;;;;;37.90;19.67;;;;;;;-2.73;72.84;100262.41;1768671;81;21027;-76
2022/11/20 03:05:55;;;;;;;35.17;19.47;;;;;;;-2.71;72.98;100256.02;1768193;81;21116;-77
2022/11/20 03:08:22;;;;;;;36.63;19.97;;;;;;;-2.74;72.87;100254.28;1768221;81;21001;-77
2022/11/20 03:10:50;;;;;;;36.23;19.23;;;;;;;-2.74;72.91;100253.42;1768287;81;21599;-77
2022/11/20 03:13:17;;;;;;;36.00;18.57;;;;;;;-2.81;72.83;100256.72;1759056;81;20883;-77
2022/11/20 03:15:44;;;;;;;37.83;19.30;;;;;;;-2.88;72.53;100251.05;1763749;81;21526;-77
2022/11/20 03:18:11;;;;;;;34.90;18.90;;;;;;;-2.90;72.88;100248.47;1761414;81;21162;-76
2022/11/20 03:20:38;;;;;;;35.40;19.33;;;;;;;-2.89;72.98;100250.61;1764267;81;21546;-77
2022/11/20 03:23:05;;;;;;;36.60;19.97;;;;;;;-2.90;73.10;100248.90;1740135;81;20998;-77
2022/11/20 03:25:32;;;;;;;37.33;18.97;;;;;;;-2.94;72.96;100248.86;1753113;81;21036;-77
2022/11/20 03:27:59;;;;;;;35.37;18.07;;;;;;;-2.87;73.36;100243.39;1768988;81;21069;-76
2022/11/20 03:30:26;;;;;;;36.10;20.30;;;;;;;-2.84;73.44;100247.27;1768926;81;21177;-76
2022/11/20 03:32:54;;;;;;;36.67;19.13;;;;;;;-2.80;73.58;100249.06;1768928;81;21000;-77
2022/11/20 03:35:21;;;;;;;35.63;18.83;;;;;;;-2.80;73.39;100252.02;1768933;81;20984;-77
2022/11/20 03:37:48;;;;;;;33.80;17.83;;;;;;;-2.86;73.28;100255.36;1768913;81;21460;-78
2022/11/20 03:40:15;;;;;;;34.40;18.57;;;;;;;-2.83;73.68;100246.85;1764325;81;22044;-77
2022/11/20 03:42:45;;;;;;;35.13;19.37;;;;;;;-2.78;73.57;100249.06;1766814;81;21935;-77
2022/11/20 03:45:17;;;;;;;36.58;19.05;;;;;;;-2.76;73.67;100245.69;1769035;81;21035;-77
2022/11/20 03:47:45;;;;;;;42.43;18.97;;;;;;;-2.72;73.57;100243.59;1767999;81;21532;-77
2022/11/20 03:50:13;;;;;;;35.30;18.10;;;;;;;-2.72;73.22;100243.59;1769171;81;21524;-76
2022/11/20 03:52:40;;;;;;;37.00;19.30;;;;;;;-2.77;73.32;100249.50;1768983;81;20980;-77
2022/11/20 03:55:08;;;;;;;35.80;19.23;;;;;;;-2.79;73.21;100251.20;1759557;81;21087;-77
2022/11/20 03:57:35;;;;;;;36.73;19.20;;;;;;;-2.80;73.30;100232.78;1764978;81;21022;-77
2022/11/20 04:00:04;;;;;;;35.17;18.60;;;;;;;-2.80;73.23;100232.39;1762373;81;21055;-76
2022/11/20 04:02:31;;;;;;;35.73;18.80;;;;;;;-2.79;73.17;100236.67;1768988;81;21254;-76
2022/11/20 04:04:58;;;;;;;36.33;18.03;;;;;;;-2.79;73.25;100235.39;1762284;81;21035;-76
2022/11/20 04:07:25;;;;;;;34.63;18.47;;;;;;;-2.77;73.29;100237.95;1768911;81;21202;-76
2022/11/20 04:09:52;;;;;;;39.30;20.57;;;;;;;-2.73;73.28;100239.73;1768999;81;21456;-76
2022/11/20 04:12:19;;;;;;;38.10;19.13;;;;;;;-2.73;73.15;100242.30;1765394;81;21021;-76
2022/11/20 04:14:46;;;;;;;35.90;19.70;;;;;;;-2.73;73.16;100248.29;1766099;81;20915;-76
2022/11/20 04:17:13;;;;;;;36.93;19.70;;;;;;;-2.68;73.31;100244.95;1768908;81;21058;-77
2022/11/20 04:19:40;;;;;;;36.30;18.83;;;;;;;-2.69;73.11;100245.34;1763343;81;21091;-77
2022/11/20 04:22:08;;;;;;;37.87;18.77;;;;;;;-2.71;73.10;100244.48;1767893;81;21067;-76
2022/11/20 04:24:35;;;;;;;34.93;18.97;;;;;;;-2.73;73.11;100239.31;1769250;81;21389;-77
2022/11/20 04:27:02;;;;;;;37.27;20.13;;;;;;;-2.71;73.25;100241.92;1772879;80;21480;-77
2022/11/20 04:29:29;;;;;;;36.90;19.10;;;;;;;-2.65;73.43;100243.27;1757270;81;21459;-77
2022/11/20 04:31:56;;;;;;;32.83;18.87;;;;;;;-2.66;73.32;100242.84;1761819;81;21099;-77
2022/11/20 04:34:23;;;;;;;34.17;18.87;;;;;;;-2.63;73.36;100244.56;1761923;81;21521;-77
2022/11/20 04:36:50;;;;;;;36.23;18.67;;;;;;;-2.63;73.20;100242.89;1759191;81;21566;-77
2022/11/20 04:39:17;;;;;;;38.53;20.33;;;;;;;-2.72;73.16;100241.02;1745134;80;21004;-77
2022/11/20 04:41:44;;;;;;;35.13;18.47;;;;;;;-2.69;73.26;100245.34;1753064;81;21607;-77
2022/11/20 04:44:10;;;;;;;38.50;19.87;;;;;;;-2.68;73.31;100244.95;1758188;81;21090;-78
2022/11/20 04:46:41;;;;;;;33.90;19.00;;;;;;;-2.65;73.52;100243.70;1759846;81;21033;-76
2022/11/20 04:49:09;;;;;;;38.23;19.92;;;;;;;-2.67;73.40;100250.51;1758392;80;21067;-76
2022/11/20 04:51:36;;;;;;;35.47;18.70;;;;;;;-2.64;73.63;100252.69;1760891;81;21041;-78
2022/11/20 04:54:03;;;;;;;38.57;20.57;;;;;;;-2.68;73.24;100245.80;1761932;81;21006;-77
2022/11/20 04:56:30;;;;;;;33.70;19.20;;;;;;;-2.70;73.18;100248.33;1757794;81;21026;-77
2022/11/20 04:59:02;;;;;;;36.97;20.00;;;;;;;-2.68;73.69;100244.52;1759174;81;20990;-77
2022/11/20 05:01:29;;;;;;;33.17;19.07;;;;;;;-2.64;73.42;100246.27;1762148;80;20991;-77
2022/11/20 05:03:56;;;;;;;35.23;20.00;;;;;;;-2.68;73.12;100237.25;1751359;81;21003;-77
2022/11/20 05:06:23;;;;;;;36.27;19.27;;;;;;;-2.72;73.48;100236.32;1743919;80;21024;-77
2022/11/20 05:08:50;;;;;;;37.03;19.70;;;;;;;-2.70;73.94;100239.35;1752546;81;21109;-77
2022/11/20 05:11:20;;;;;;;38.40;18.67;;;;;;;-2.65;74.09;100234.30;1761744;81;21011;-76
2022/11/20 05:13:49;;;;;;;33.35;18.92;;;;;;;-2.61;74.12;100231.34;1762132;81;21539;-78
2022/11/20 05:16:20;;;;;;;39.13;18.70;;;;;;;-2.63;73.90;100227.89;1758412;81;20971;-78
2022/11/20 05:18:48;;;;;;;38.88;19.67;;;;;;;-2.63;74.17;100224.92;1759843;80;21426;-77
2022/11/20 05:21:16;;;;;;;33.10;19.13;;;;;;;-2.63;74.16;100224.03;1756258;80;21572;-77
2022/11/20 05:23:44;;;;;;;37.43;19.33;;;;;;;-2.64;74.35;100225.75;1758800;81;21014;-77
2022/11/20 05:26:22;;;;;;;35.80;19.40;;;;;;;-2.62;74.60;100224.50;1755186;80;21011;-77
2022/11/20 05:28:50;;;;;;;35.67;19.27;;;;;;;-2.57;74.82;100225.42;1770280;78;21430;-78
2022/11/20 05:31:22;;;;;;;34.93;19.23;;;;;;;-2.51;74.94;100225.08;1766067;78;21494;-77
2022/11/20 05:33:49;;;;;;;39.93;19.97;;;;;;;-2.49;74.77;100223.40;1766342;78;21074;-78
2022/11/20 05:36:17;;;;;;;42.40;19.00;;;;;;;-2.48;74.70;100230.25;1761309;81;21002;-78
2022/11/20 05:38:45;;;;;;;35.87;18.50;;;;;;;-2.47;74.66;100231.98;1746007;81;21086;-79
2022/11/20 05:41:18;;;;;;;37.87;18.77;;;;;;;-2.50;74.63;100231.92;1750035;81;20936;-79
2022/11/20 05:43:48;;;;;;;35.33;19.87;;;;;;;-2.50;74.58;100228.50;1756597;81;21098;-78
2022/11/20 05:46:19;;;;;;;32.67;18.47;;;;;;;-2.52;74.45;100228.92;1757021;81;21678;-78
2022/11/20 05:48:46;;;;;;;;;;;;;;;-2.57;74.34;100219.87;1760832;81;20927;-78
2022/11/20 05:51:18;;;;;;;33.17;17.73;;;;;;;-2.58;74.54;100218.55;1758681;80;20208;-78
2022/11/20 05:53:45;;;;;;;32.77;17.43;;;;;;;-2.55;74.71;100215.62;1754344;80;22137;-78
2022/11/20 05:56:17;;;;;;;32.33;16.83;;;;;;;-2.51;74.61;100212.67;1752925;81;21048;-78
2022/11/20 05:58:44;;;;;;;33.70;17.40;;;;;;;-2.49;74.64;100208.42;1756412;81;21144;-78
2022/11/20 06:01:22;;;;;;;30.83;16.63;;;;;;;-2.51;74.28;100214.81;1759792;81;20935;-78
2022/11/20 06:03:50;;;;;;;32.00;17.97;;;;;;;-2.45;74.80;100211.45;1749453;81;20993;-78
2022/11/20 06:06:18;;;;;;;34.43;17.37;;;;;;;-2.47;74.03;100202.48;1756399;81;21017;-78
2022/11/20 06:08:46;;;;;;;29.43;16.33;;;;;;;-2.49;74.29;100202.02;1755076;81;21074;-78
2022/11/20 06:11:16;;;;;;;31.60;17.17;;;;;;;-2.44;74.43;100199.48;1754666;81;21475;-78
2022/11/20 06:13:43;;;;;;;33.30;16.90;;;;;;;-2.37;74.63;100194.88;1745805;81;21080;-78
2022/11/20 06:16:13;;;;;;;34.50;18.93;;;;;;;-2.29;74.76;100198.40;1759468;81;21028;-78
2022/11/20 06:18:40;;;;;;;39.83;18.02;;;;;;;-2.24;74.61;100201.89;1747668;81;21017;-78
2022/11/20 06:21:14;;;;;;;33.73;17.53;;;;;;;-2.22;74.50;100200.60;1758698;81;21063;-78
2022/11/20 06:23:42;;;;;;;29.37;16.20;;;;;;;-2.25;74.60;100201.42;1748010;81;22125;-78
2022/11/20 06:26:16;;;;;;;31.17;16.27;;;;;;;-2.28;74.55;100198.83;1754097;81;21008;-77
2022/11/20 06:28:43;;;;;;;32.30;16.97;;;;;;;-2.26;75.02;100201.86;1747449;82;21023;-77
2022/11/20 06:31:13;;;;;;;28.27;17.03;;;;;;;-2.18;75.21;100202.38;1748031;82;21502;-77
2022/11/20 06:33:41;;;;;;;30.77;16.32;;;;;;;-2.15;75.17;100202.41;1748288;82;21067;-78
2022/11/20 06:36:10;;;;;;;32.37;17.47;;;;;;;-2.16;74.96;100207.98;1746737;82;21954;-78
2022/11/20 06:38:38;;;;;;;28.97;15.30;;;;;;;-2.26;74.67;100200.57;1748212;82;21294;-77
2022/11/20 06:41:07;;;;;;;29.90;15.73;;;;;;;-2.24;75.05;100203.17;1747993;82;21059;-78
2022/11/20 06:43:34;;;;;;;33.30;16.73;;;;;;;-2.26;74.85;100204.85;1748308;82;21020;-77
2022/11/20 06:46:01;;;;;;;31.30;17.47;;;;;;;-2.29;74.66;100204.81;1748243;82;21338;-78
2022/11/20 06:48:29;;;;;;;31.37;16.57;;;;;;;-2.32;74.66;100209.92;1747952;82;21969;-78
2022/11/20 06:50:57;;;;;;;32.43;16.43;;;;;;;-2.27;74.76;100210.84;1748311;82;21565;-78
2022/11/20 06:53:24;;;;;;;33.43;17.60;;;;;;;-2.27;74.59;100214.69;1748529;82;21028;-78
2022/11/20 06:55:52;;;;;;;30.43;17.10;;;;;;;-2.28;74.65;100213.80;1747624;82;21497;-77
2022/11/20 06:58:19;;;;;;;30.67;17.03;;;;;;;-2.26;74.79;100224.11;1748626;82;21071;-78
2022/11/20 07:00:46;;;;;;;31.33;17.67;;;;;;;-2.26;74.73;100218.97;1748380;82;21126;-78
2022/11/20 07:03:14;;;;;;;29.60;16.30;;;;;;;-2.31;74.70;100215.05;1747708;82;21062;-78
2022/11/20 07:05:41;;;;;;;28.40;17.10;;;;;;;-2.30;74.76;100212.06;1748337;82;21023;-78
2022/11/20 07:08:08;;;;;;;31.53;16.17;;;;;;;-2.34;74.89;100203.47;1748535;82;21423;-78
2022/11/20 07:10:35;;;;;;;30.47;16.90;;;;;;;-2.36;74.87;100205.14;1747940;82;21272;-78
2022/11/20 07:13:02;;;;;;;30.10;17.17;;;;;;;-2.39;74.61;100202.55;1748405;82;21125;-79
2022/11/20 07:15:30;;;;;;;55.73;28.83;;;;;;;-2.39;75.05;100200.41;1748173;82;21100;-78
2022/11/20 07:17:59;;;;;;;49.07;21.43;;;;;;;-2.35;75.02;100194.05;1748676;82;21035;-81
2022/11/20 07:20:26;;;;;;;31.57;18.47;;;;;;;-2.31;75.06;100188.53;1748427;82;21003;-78
2022/11/20 07:22:55;;;;;;;38.53;18.33;;;;;;;-2.30;75.11;100185.11;1748350;82;21012;-75
2022/11/20 07:25:26;;;;;;;30.73;17.63;;;;;;;-2.32;75.00;100185.53;1748488;82;21719;-80
2022/11/20 07:27:58;;;;;;;32.33;17.33;;;;;;;-2.35;74.80;100191.92;1732919;80;21583;-81
2022/11/20 07:30:26;;;;;;;35.40;18.03;;;;;;;-2.42;74.72;100189.67;1775546;80;21260;-80
2022/11/20 07:32:55;;;;;;;35.47;18.97;;;;;;;-2.43;74.77;100188.39;1761955;80;21026;-81
2022/11/20 07:35:24;;;;;;;35.43;18.33;;;;;;;-2.39;75.21;100186.29;1783417;79;21030;-83
2022/11/20 07:37:50;;;;;;;30.43;17.73;;;;;;;-2.36;75.04;100182.05;1789623;79;21975;-80
2022/11/20 07:40:19;;;;;;;36.80;18.77;;;;;;;-2.40;74.61;100175.59;1784630;79;21029;-80
2022/11/20 07:42:50;;;;;;;34.27;17.50;;;;;;;-2.43;75.04;100180.69;1778624;79;21017;-79
2022/11/20 07:45:19;;;;;;;35.90;17.97;;;;;;;-2.42;74.94;100174.28;1793465;79;21042;-80
2022/11/20 07:47:46;;;;;;;32.70;17.57;;;;;;;-2.39;75.31;100171.74;1779629;79;21021;-79
2022/11/20 07:50:14;;;;;;;37.53;19.53;;;;;;;-2.30;75.28;100170.98;1776149;79;21705;-80
2022/11/20 07:52:41;;;;;;;32.23;16.13;;;;;;;-2.34;75.11;100169.23;1752981;81;21316;-81
2022/11/20 07:55:10;;;;;;;34.37;18.13;;;;;;;-2.28;75.29;100159.89;1762440;81;21318;-78
2022/11/20 07:57:37;;;;;;;30.50;16.97;;;;;;;-2.27;75.06;100160.78;1758617;80;21425;-86
2022/11/20 08:00:07;;;;;;;32.53;17.00;;;;;;;-2.26;75.10;100158.64;1761041;79;21011;-87
2022/11/20 08:02:40;;;;;;;33.30;16.90;;;;;;;-2.22;75.15;100155.67;1759470;81;21151;-81
2022/11/20 08:05:10;;;;;;;60.37;28.57;;;;;;;-2.19;75.24;100156.59;1765479;81;21023;-81
2022/11/20 08:07:42;;;;;;;59.50;27.85;;;;;;;-2.16;75.29;100160.47;1760935;80;21020;-81
2022/11/20 08:10:12;;;;;;;61.90;29.13;;;;;;;-2.11;75.00;100163.06;1756861;81;21099;-79
2022/11/20 08:15:39;;;;;;;83.83;31.77;;;;;;;-2.03;75.07;100161.02;1759156;81;21533;-81
2022/11/20 08:18:10;;;;;;;129.70;49.83;;;;;;;-1.95;74.84;100159.81;1767219;79;21073;-80
2022/11/20 08:20:38;;;;;;;48.90;23.50;;;;;;;-1.90;74.99;100159.44;1759194;79;21508;-81
2022/11/20 08:23:07;;;;;;;35.23;19.83;;;;;;;-1.84;74.77;100150.50;1760975;81;21102;-80
2022/11/20 08:25:37;;;;;;;63.20;30.90;;;;;;;-1.77;74.86;100155.28;1737784;81;26568;-80
2022/11/20 08:28:08;;;;;;;51.30;25.70;;;;;;;-1.66;74.85;100152.39;1783980;78;21123;-81
2022/11/20 08:30:36;;;;;;;39.53;21.20;;;;;;;-1.54;74.68;100152.91;1752624;81;21011;-81
2022/11/20 08:33:08;;;;;;;37.73;20.13;;;;;;;-1.37;75.22;100151.75;1762374;81;21008;-83
2022/11/20 08:35:37;;;;;;;53.60;24.87;;;;;;;-1.16;74.92;100142.05;1763556;80;20984;-80
2022/11/20 08:38:05;;;;;;;52.93;25.30;;;;;;;-1.00;74.70;100142.58;1770023;80;21050;-80
2022/11/20 08:40:33;;;;;;;59.40;22.83;;;;;;;-0.78;74.30;100142.67;1756337;81;21507;-79
2022/11/20 08:43:00;;;;;;;45.73;22.17;;;;;;;-0.69;73.84;100135.02;1760664;81;20930;-79
2022/11/20 08:45:27;;;;;;;43.00;19.60;;;;;;;-0.53;73.95;100133.34;1755442;80;21038;-78
2022/11/20 08:48:02;;;;;;;45.97;21.77;;;;;;;-0.34;73.76;100132.55;1757726;81;21046;-80
2022/11/20 08:50:31;;;;;;;31.13;16.70;;;;;;;-0.15;73.88;100132.60;1759219;80;20996;-81
2022/11/20 08:53:05;;;;;;;36.77;19.40;;;;;;;0.06;73.48;100129.22;1735008;81;21516;-80
2022/11/20 08:55:32;;;;;;;40.43;22.50;;;;;;;0.19;73.09;100125.37;1760097;80;20996;-79
2022/11/20 08:58:05;;;;;;;42.67;23.43;;;;;;;0.36;73.11;100129.23;1763239;80;21026;-81
2022/11/20 09:00:34;;;;;;;37.27;21.07;;;;;;;0.55;72.58;100128.78;1745537;81;21015;-79
2022/11/20 09:03:01;;;;;;;35.67;19.07;;;;;;;0.72;72.35;100128.80;1752765;81;20996;-79
2022/11/20 09:05:28;;;;;;;36.53;20.33;;;;;;;0.89;72.36;100121.02;1753301;81;21091;-79
2022/11/20 09:07:59;;;;;;;36.93;20.97;;;;;;;1.04;71.72;100120.97;1754672;81;21027;-78
2022/11/20 09:10:27;;;;;;;;;;;;;;;1.08;71.04;100123.09;1773485;80;21080;-79
2022/11/20 09:12:55;;;;;;;36.13;19.43;;;;;;;1.19;70.80;100121.78;1766814;80;20200;-80
2022/11/20 09:15:25;;;;;;;38.17;19.00;;;;;;;1.26;70.51;100121.76;1753589;81;21026;-79
2022/11/20 09:18:04;;;;;;;37.98;20.95;;;;;;;1.34;70.46;100118.72;1757316;81;21926;-81
2022/11/20 09:20:32;;;;;;;32.40;19.40;;;;;;;1.41;70.00;100119.53;1761676;81;21025;-79
2022/11/20 09:22:59;;;;;;;26.83;16.50;;;;;;;1.47;69.90;100120.83;1757630;81;21486;-79
2022/11/20 09:25:26;;;;;;;28.77;18.50;;;;;;;1.64;70.07;100127.20;1759668;81;21241;-79
2022/11/20 09:28:00;;;;;;;31.37;19.33;;;;;;;1.79;69.70;100122.37;1765108;78;21039;-79
2022/11/20 09:30:28;;;;;;;40.10;20.97;;;;;;;1.92;69.57;100122.73;1787575;78;21037;-79
2022/11/20 09:32:55;;;;;;;35.27;20.53;;;;;;;2.11;69.58;100124.77;1778375;78;20986;-80
2022/11/20 09:35:22;;;;;;;32.97;21.00;;;;;;;2.24;69.32;100121.64;1774737;80;20999;-79
2022/11/20 09:37:49;;;;;;;31.53;18.73;;;;;;;2.36;68.57;100115.53;1782985;79;20972;-80
2022/11/20 09:40:29;;;;;;;32.77;18.43;;;;;;;2.48;68.86;100123.62;1782788;80;21306;-79
2022/11/20 09:43:26;;;;;;;28.93;18.83;;;;;;;2.63;68.66;100128.23;1783147;79;21955;-80
2022/11/20 09:46:16;;;;;;;30.47;19.63;;;;;;;2.87;68.21;100125.83;1782424;80;20959;-79
2022/11/20 09:48:50;;;;;;;;;;;;;;;3.09;67.99;100118.70;1740207;81;21381;-81
2022/11/20 09:51:38;;;;;;;27.93;17.83;;;;;;;3.31;67.35;100114.57;1759181;81;20140;-81
2022/11/20 09:54:18;;;;;;;28.10;18.40;;;;;;;3.46;67.47;100110.92;1766269;81;21022;-79
2022/11/20 09:56:56;;;;;;;33.25;19.37;;;;;;;3.60;67.08;100108.16;1766008;81;21127;-79
2022/11/20 09:59:45;;;;;;;31.50;18.87;;;;;;;3.72;66.68;100098.49;1766293;81;21061;-79
2022/11/20 10:02:30;;;;;;;26.07;17.70;;;;;;;3.75;66.16;100093.70;1766143;81;21453;-80
2022/11/20 10:05:15;;;;;;;31.30;18.30;;;;;;;3.85;65.85;100086.20;1766213;81;21174;-81
2022/11/20 10:08:00;;;;;;;24.57;16.93;;;;;;;4.05;66.04;100096.30;1765982;81;21523;-81
2022/11/20 10:10:56;;;;;;;25.77;16.73;;;;;;;4.27;65.49;100086.44;1764963;81;21107;-82
2022/11/20 10:14:04;;;;;;;25.47;17.03;;;;;;;4.39;65.09;100089.27;1754858;81;21018;-82
2022/11/20 10:17:03;;;;;;;30.10;17.80;;;;;;;4.50;64.66;100091.23;1766233;81;20990;-79
2022/11/20 10:20:04;;;;;;;28.67;17.83;;;;;;;4.62;64.18;100086.27;1765845;81;21602;-79
2022/11/20 10:22:51;;;;;;;44.80;25.13;;;;;;;4.68;63.53;100080.55;1763804;81;21030;-79
2022/11/20 10:25:33;;;;;;;25.17;16.83;;;;;;;4.74;63.10;100070.91;1779280;79;21113;-80
2022/11/20 10:28:26;;;;;;;26.47;15.73;;;;;;;4.90;63.29;100074.52;1742959;81;21046;-80
2022/11/20 10:30:59;;;;;;;21.57;13.77;;;;;;;5.13;63.00;100066.71;1747964;80;21019;-80
2022/11/20 10:33:29;;;;;;;21.20;14.50;;;;;;;5.34;62.70;100067.99;1785020;80;21014;-79
2022/11/20 10:36:11;;;;;;;21.50;14.78;;;;;;;5.51;62.32;100055.48;1765993;80;23988;-80
2022/11/20 10:38:45;;;;;;;22.23;15.57;;;;;;;5.70;61.96;100056.39;1742681;81;21982;-80
2022/11/20 10:41:26;;;;;;;18.83;13.63;;;;;;;5.74;61.31;100048.94;1756653;81;21013;-79
2022/11/20 10:45:00;;;;;;;18.83;13.53;;;;;;;5.86;60.90;100049.95;1771019;80;20894;-80
2022/11/20 10:46:45;;;;;;;18.83;13.27;;;;;;;6.03;60.89;100043.08;1782181;80;20983;-80
2022/11/20 10:49:19;;;;;;;19.30;13.20;;;;;;;6.20;60.41;100040.05;1752954;81;21287;-81
2022/11/20 10:52:01;;;;;;;17.37;13.07;;;;;;;6.32;60.04;100042.38;1741393;80;21151;-81
2022/11/20 10:55:00;;;;;;;18.70;12.90;;;;;;;6.35;59.28;100038.38;1791848;80;21544;-79
2022/11/20 10:57:33;;;;;;;18.33;11.90;;;;;;;6.38;59.01;100037.45;1754530;80;21073;-79
2022/11/20 11:00:05;;;;;;;21.87;13.27;;;;;;;6.33;58.52;100029.75;1759193;81;21482;-79
2022/11/20 11:02:56;;;;;;;16.13;12.03;;;;;;;6.36;58.23;100028.82;1749115;80;21362;-79
2022/11/20 11:05:43;;;;;;;19.50;12.77;;;;;;;6.53;58.29;100030.53;1774724;80;22053;-79
2022/11/20 11:08:17;;;;;;;19.17;13.10;;;;;;;6.77;57.48;100026.42;1758119;80;21026;-79
2022/11/20 11:10:53;;;;;;;15.53;11.78;;;;;;;7.16;57.18;100027.50;1753447;81;20987;-78
2022/11/20 11:13:30;;;;;;;15.25;11.80;;;;;;;7.57;56.66;100016.30;1761075;80;21066;-79
2022/11/20 11:15:58;;;;;;;14.43;11.75;;;;;;;7.87;56.09;100008.38;1786536;80;20962;-79
2022/11/20 11:18:34;;;;;;;17.10;13.20;;;;;;;8.20;55.58;100003.39;1763714;80;21125;-79
2022/11/20 11:21:05;;;;;;;17.48;13.18;;;;;;;8.47;55.51;100004.20;1741085;81;20987;-78
2022/11/20 11:23:38;;;;;;;;;;;;;;;8.75;54.98;99998.02;1761190;81;21616;-80
2022/11/20 11:26:20;;;;;;;18.80;13.75;;;;;;;8.98;54.13;99993.27;1757447;81;20591;-78
2022/11/20 11:29:03;;;;;;;20.20;13.90;;;;;;;9.17;54.54;99994.72;1791397;80;21424;-79
2022/11/20 11:31:35;;;;;;;17.17;12.55;;;;;;;9.37;53.97;99990.91;1780988;80;21063;-79
2022/11/20 11:34:15;;;;;;;17.23;13.00;;;;;;;9.58;53.65;99992.28;1734104;81;21006;-80
2022/11/20 11:36:57;;;;;;;14.60;11.50;;;;;;;9.54;53.43;99995.48;1760625;80;21009;-79
2022/11/20 11:39:29;;;;;;;16.60;11.80;;;;;;;9.37;53.44;99986.14;1761871;80;21023;-79